createdAt,value
2023-07-24T00:01:41.440Z,24.40
2023-07-24T00:04:09.344Z,24.40
2023-07-24T00:06:37.225Z,24.40
2023-07-24T00:09:05.201Z,24.40
2023-07-24T00:11:34.455Z,24.40
2023-07-24T00:14:02.411Z,24.30
2023-07-24T00:16:30.522Z,24.30
2023-07-24T00:18:58.556Z,24.20
2023-07-24T00:21:26.478Z,24.20
2023-07-24T00:23:54.373Z,24.20
2023-07-24T00:26:22.290Z,24.10
2023-07-24T00:28:51.552Z,24.10
2023-07-24T00:31:19.517Z,24.10
2023-07-24T00:33:47.484Z,24.10
2023-07-24T00:36:15.374Z,24.00
2023-07-24T00:38:43.299Z,24.00
2023-07-24T00:41:11.221Z,24.00
2023-07-24T00:43:39.083Z,24.00
2023-07-24T00:46:08.413Z,24.00
2023-07-24T00:48:36.461Z,23.90
2023-07-24T00:51:04.518Z,23.90
2023-07-24T00:53:32.468Z,23.90
2023-07-24T00:56:00.383Z,23.90
2023-07-24T00:58:28.391Z,23.90
2023-07-24T01:00:56.425Z,23.90
2023-07-24T01:03:27.538Z,23.80
2023-07-24T01:05:56.984Z,23.90
2023-07-24T01:08:24.969Z,23.80
2023-07-24T01:10:52.891Z,23.80
2023-07-24T01:13:24.523Z,23.80
2023-07-24T01:15:54.646Z,23.80
2023-07-24T01:18:24.611Z,23.80
2023-07-24T01:20:57.528Z,23.70
2023-07-24T01:23:32.344Z,23.70
2023-07-24T01:26:03.536Z,23.70
2023-07-24T01:28:31.506Z,23.70
2023-07-24T01:30:59.512Z,23.70
2023-07-24T01:33:27.521Z,23.70
2023-07-24T01:35:57.013Z,23.70
2023-07-24T01:38:25.672Z,23.70
2023-07-24T01:40:53.925Z,23.60
2023-07-24T01:43:23.884Z,23.60
2023-07-24T01:45:51.852Z,23.60
2023-07-24T01:48:19.784Z,23.60
2023-07-24T01:50:47.716Z,23.60
2023-07-24T01:53:15.902Z,23.60
2023-07-24T01:55:43.929Z,23.60
2023-07-24T01:58:11.809Z,23.60
2023-07-24T02:00:41.063Z,23.60
2023-07-24T02:03:09.012Z,23.50
2023-07-24T02:05:37.024Z,23.50
2023-07-24T02:08:05.090Z,23.50
2023-07-24T02:10:33.005Z,23.50
2023-07-24T02:13:00.881Z,23.50
2023-07-24T02:15:29.003Z,23.50
2023-07-24T02:17:58.311Z,23.50
2023-07-24T02:20:26.252Z,23.50
2023-07-24T02:22:54.153Z,23.50
2023-07-24T02:25:22.043Z,23.50
2023-07-24T02:27:49.951Z,23.50
2023-07-24T02:30:17.934Z,23.50
2023-07-24T02:32:45.909Z,23.50
2023-07-24T02:35:15.181Z,23.40
2023-07-24T02:37:43.082Z,23.40
2023-07-24T02:40:11.510Z,23.40
2023-07-24T02:42:39.417Z,23.40
2023-07-24T02:45:11.839Z,23.40
2023-07-24T02:47:39.921Z,23.40
2023-07-24T02:50:08.421Z,23.40
2023-07-24T02:52:37.667Z,23.40
2023-07-24T02:55:05.954Z,23.30
2023-07-24T02:57:33.886Z,23.30
2023-07-24T03:00:01.762Z,23.40
2023-07-24T03:02:29.788Z,23.30
2023-07-24T03:04:57.842Z,23.30
2023-07-24T03:07:25.744Z,23.30
2023-07-24T03:09:55.027Z,23.20
2023-07-24T03:12:22.907Z,23.30
2023-07-24T03:14:50.869Z,23.30
2023-07-24T03:17:18.769Z,23.20
2023-07-24T03:19:46.767Z,23.20
2023-07-24T03:22:14.645Z,23.20
2023-07-24T03:24:42.608Z,23.20
2023-07-24T03:27:11.857Z,23.10
2023-07-24T03:29:40.499Z,23.20
2023-07-24T03:32:08.898Z,23.20
2023-07-24T03:34:36.824Z,23.20
2023-07-24T03:37:04.934Z,23.10
2023-07-24T03:39:32.852Z,23.20
2023-07-24T03:42:00.725Z,23.20
2023-07-24T03:44:30.049Z,23.20
2023-07-24T03:46:58.002Z,23.20
2023-07-24T03:49:25.933Z,23.30
2023-07-24T03:51:53.846Z,23.30
2023-07-24T03:54:21.755Z,23.40
2023-07-24T03:56:49.719Z,23.40
2023-07-24T03:59:17.638Z,23.40
2023-07-24T04:01:46.963Z,23.30
2023-07-24T04:04:14.846Z,23.30
2023-07-24T04:06:42.748Z,23.30
2023-07-24T04:09:11.946Z,23.30
2023-07-24T04:11:40.526Z,23.30
2023-07-24T04:14:08.467Z,23.40
2023-07-24T04:16:36.736Z,23.30
2023-07-24T04:19:06.622Z,23.30
2023-07-24T04:21:34.547Z,23.30
2023-07-24T04:24:02.433Z,23.30
2023-07-24T04:26:30.538Z,23.30
2023-07-24T04:28:58.715Z,23.30
2023-07-24T04:31:26.696Z,23.30
2023-07-24T04:33:54.617Z,23.30
2023-07-24T04:36:23.859Z,23.30
2023-07-24T04:38:51.756Z,23.40
2023-07-24T04:41:19.635Z,23.50
2023-07-24T04:43:47.546Z,23.50
2023-07-24T04:46:15.473Z,23.50
2023-07-24T04:48:43.409Z,23.50
2023-07-24T04:51:11.316Z,23.40
2023-07-24T04:53:40.606Z,23.40
2023-07-24T04:56:08.462Z,23.40
2023-07-24T04:58:36.360Z,23.50
2023-07-24T05:01:05.006Z,23.60
2023-07-24T05:03:32.952Z,23.60
2023-07-24T05:06:00.882Z,23.60
2023-07-24T05:08:28.781Z,23.70
2023-07-24T05:10:58.459Z,23.70
2023-07-24T05:13:26.407Z,23.80
2023-07-24T05:15:54.421Z,23.90
2023-07-24T05:18:22.328Z,24.00
2023-07-24T05:20:52.531Z,24.00
2023-07-24T05:23:20.879Z,24.00
2023-07-24T05:25:48.780Z,24.00
2023-07-24T05:28:18.032Z,24.00
2023-07-24T05:30:45.929Z,24.10
2023-07-24T05:33:13.806Z,23.90
2023-07-24T05:35:41.724Z,23.80
2023-07-24T05:38:09.596Z,23.70
2023-07-24T05:40:37.593Z,23.70
2023-07-24T05:43:05.522Z,23.60
2023-07-24T05:45:34.801Z,23.60
2023-07-24T05:48:02.715Z,23.80
2023-07-24T05:50:30.685Z,23.80
2023-07-24T05:52:58.585Z,23.90
2023-07-24T05:55:26.466Z,23.90
2023-07-24T05:57:54.369Z,23.90
2023-07-24T06:00:22.339Z,23.90
2023-07-24T06:02:51.702Z,23.90
2023-07-24T06:05:20.863Z,23.90
2023-07-24T06:07:48.937Z,23.80
2023-07-24T06:10:16.928Z,23.80
2023-07-24T06:12:44.881Z,23.90
2023-07-24T06:15:12.777Z,23.90
2023-07-24T06:17:40.791Z,23.90
2023-07-24T06:20:10.670Z,23.90
2023-07-24T06:22:38.560Z,23.80
2023-07-24T06:25:06.848Z,23.70
2023-07-24T06:27:34.807Z,23.60
2023-07-24T06:30:14.308Z,23.70
2023-07-24T06:32:43.464Z,23.80
2023-07-24T06:35:12.769Z,24.00
2023-07-24T06:37:40.633Z,24.00
2023-07-24T06:40:09.172Z,24.00
2023-07-24T06:42:37.070Z,24.00
2023-07-24T06:45:08.196Z,23.90
2023-07-24T06:47:36.503Z,23.90
2023-07-24T06:50:05.702Z,23.90
2023-07-24T06:52:35.244Z,24.00
2023-07-24T06:55:03.279Z,24.00
2023-07-24T06:57:31.198Z,24.10
2023-07-24T06:59:59.136Z,24.10
2023-07-24T07:02:27.077Z,24.20
2023-07-24T07:04:55.019Z,24.20
2023-07-24T07:07:22.920Z,24.30
2023-07-24T07:09:52.191Z,24.60
2023-07-24T07:12:22.225Z,24.90
2023-07-24T07:14:50.400Z,25.10
2023-07-24T07:17:18.377Z,25.40
2023-07-24T07:19:46.251Z,25.40
2023-07-24T07:22:14.189Z,25.90
2023-07-24T07:24:42.101Z,26.50
2023-07-24T07:27:11.379Z,27.10
2023-07-24T07:29:39.316Z,27.10
2023-07-24T07:32:07.901Z,27.00
2023-07-24T07:34:35.937Z,27.00
2023-07-24T07:37:03.868Z,27.00
2023-07-24T07:39:31.740Z,27.00
2023-07-24T07:42:12.385Z,27.10
2023-07-24T07:44:47.302Z,27.40
2023-07-24T07:47:15.304Z,27.80
2023-07-24T07:49:43.530Z,28.20
2023-07-24T07:52:11.444Z,28.30
2023-07-24T07:54:39.343Z,28.40
2023-07-24T07:57:07.295Z,28.70
2023-07-24T07:59:36.270Z,29.10
2023-07-24T08:02:05.854Z,29.30
2023-07-24T08:04:33.821Z,29.20
2023-07-24T08:07:01.790Z,29.30
2023-07-24T08:09:30.077Z,29.40
2023-07-24T08:11:57.955Z,28.80
2023-07-24T08:14:25.872Z,28.90
2023-07-24T08:16:54.413Z,28.80
2023-07-24T08:19:23.939Z,28.90
2023-07-24T08:21:51.835Z,29.10
2023-07-24T08:24:19.768Z,29.00
2023-07-24T08:26:47.700Z,28.80
2023-07-24T08:29:15.631Z,28.40
2023-07-24T08:31:43.634Z,28.30
2023-07-24T08:34:11.596Z,28.00
2023-07-24T08:36:40.856Z,27.80
2023-07-24T08:39:08.726Z,27.50
2023-07-24T08:41:38.498Z,27.30
2023-07-24T08:44:07.364Z,27.20
2023-07-24T08:46:37.549Z,27.20
2023-07-24T08:49:05.817Z,27.30
2023-07-24T08:51:33.901Z,27.00
2023-07-24T08:54:03.599Z,26.70
2023-07-24T08:56:31.786Z,26.80
2023-07-24T08:58:59.971Z,27.00
2023-07-24T09:01:27.911Z,26.80
2023-07-24T09:03:55.861Z,26.60
2023-07-24T09:06:23.808Z,26.40
2023-07-24T09:08:55.724Z,26.40
2023-07-24T09:11:25.013Z,26.80
2023-07-24T09:13:55.413Z,26.90
2023-07-24T09:16:24.468Z,27.20
2023-07-24T09:21:31.334Z,27.30
2023-07-24T09:24:00.314Z,27.30
2023-07-24T09:26:29.791Z,27.40
2023-07-24T09:28:57.947Z,27.40
2023-07-24T09:31:35.897Z,28.10
2023-07-24T09:34:04.576Z,28.80
2023-07-24T09:36:39.323Z,30.00
2023-07-24T09:39:09.332Z,30.90
2023-07-24T09:41:38.751Z,31.60
2023-07-24T09:44:06.909Z,31.40
2023-07-24T09:49:13.708Z,29.40
2023-07-24T09:51:41.852Z,28.60
2023-07-24T09:54:15.071Z,28.10
2023-07-24T09:56:51.974Z,27.80
2023-07-24T09:59:23.690Z,27.60
2023-07-24T10:01:52.921Z,27.40
2023-07-24T10:04:21.406Z,27.80
2023-07-24T10:06:49.431Z,28.00
2023-07-24T10:09:20.239Z,27.90
2023-07-24T10:11:49.552Z,27.70
2023-07-24T10:14:17.925Z,27.40
2023-07-24T10:16:46.803Z,27.20
2023-07-24T10:19:16.115Z,27.30
2023-07-24T10:21:46.737Z,27.30
2023-07-24T10:24:21.535Z,27.30
2023-07-24T10:26:58.531Z,27.70
2023-07-24T10:29:26.907Z,29.00
2023-07-24T10:31:55.347Z,30.00
2023-07-24T10:34:23.364Z,29.40
2023-07-24T10:36:51.218Z,28.80
2023-07-24T10:39:20.587Z,28.30
2023-07-24T10:41:48.657Z,28.20
2023-07-24T10:44:17.918Z,27.90
2023-07-24T10:46:45.813Z,27.70
2023-07-24T10:49:13.804Z,27.40
2023-07-24T10:51:41.703Z,27.60
2023-07-24T10:54:09.563Z,28.00
2023-07-24T10:56:38.619Z,28.60
2023-07-24T10:59:06.638Z,29.30
2023-07-24T11:01:36.390Z,29.60
2023-07-24T11:04:04.749Z,29.70
2023-07-24T11:06:32.700Z,30.30
2023-07-24T11:09:01.402Z,31.20
2023-07-24T11:11:33.011Z,32.30
2023-07-24T11:14:02.512Z,33.30
2023-07-24T11:16:32.458Z,34.60
2023-07-24T11:19:01.881Z,35.10
2023-07-24T11:21:30.597Z,34.90
2023-07-24T11:23:59.102Z,34.00
2023-07-24T11:26:27.939Z,33.20
2023-07-24T11:28:56.458Z,32.30
2023-07-24T11:31:24.543Z,31.90
2023-07-24T11:33:53.833Z,31.40
2023-07-24T11:36:24.225Z,31.80
2023-07-24T11:38:52.211Z,31.40
2023-07-24T11:41:20.277Z,31.00
2023-07-24T11:43:48.647Z,31.50
2023-07-24T11:46:24.756Z,31.70
2023-07-24T11:48:54.705Z,31.20
2023-07-24T11:51:25.635Z,30.50
2023-07-24T11:53:53.713Z,30.80
2023-07-24T11:56:23.073Z,31.20
2023-07-24T11:58:51.009Z,31.60
2023-07-24T12:01:18.944Z,31.20
2023-07-24T12:03:46.960Z,30.70
2023-07-24T12:06:18.017Z,30.00
2023-07-24T12:08:47.320Z,29.60
2023-07-24T12:11:19.016Z,29.40
2023-07-24T12:13:46.914Z,29.30
2023-07-24T12:16:14.974Z,29.10
2023-07-24T12:18:42.926Z,29.00
2023-07-24T12:21:10.859Z,28.90
2023-07-24T12:23:38.756Z,28.80
2023-07-24T12:26:08.450Z,28.80
2023-07-24T12:28:36.375Z,28.80
2023-07-24T12:31:05.464Z,28.70
2023-07-24T12:33:33.471Z,28.70
2023-07-24T12:36:02.745Z,28.80
2023-07-24T12:38:31.311Z,29.10
2023-07-24T12:40:59.326Z,29.10
2023-07-24T12:43:28.571Z,29.20
2023-07-24T12:45:56.465Z,29.40
2023-07-24T12:48:24.342Z,29.70
2023-07-24T12:50:53.134Z,29.80
2023-07-24T12:53:24.162Z,29.60
2023-07-24T12:55:54.205Z,29.20
2023-07-24T12:58:22.158Z,28.80
2023-07-24T13:00:51.676Z,28.60
2023-07-24T13:03:19.734Z,28.30
2023-07-24T13:05:47.675Z,27.90
2023-07-24T13:08:17.100Z,27.60
2023-07-24T13:10:46.300Z,27.30
2023-07-24T13:13:14.182Z,27.10
2023-07-24T13:15:42.077Z,27.10
2023-07-24T13:18:27.070Z,27.00
2023-07-24T13:20:56.575Z,27.00
2023-07-24T13:23:24.614Z,27.00
2023-07-24T13:25:53.878Z,26.90
2023-07-24T13:28:21.861Z,26.90
2023-07-24T13:30:49.786Z,26.90
2023-07-24T13:33:20.250Z,26.80
2023-07-24T13:35:48.204Z,26.80
2023-07-24T13:38:16.297Z,26.90
2023-07-24T13:40:44.191Z,27.00
2023-07-24T13:43:12.087Z,27.10
2023-07-24T13:45:39.993Z,27.50
2023-07-24T13:48:07.928Z,28.20
2023-07-24T13:50:37.202Z,28.70
2023-07-24T13:53:05.115Z,29.40
2023-07-24T13:55:33.100Z,29.70
2023-07-24T13:58:00.973Z,29.90
2023-07-24T14:00:28.905Z,31.10
2023-07-24T14:02:56.871Z,32.40
2023-07-24T14:05:25.239Z,33.40
2023-07-24T14:07:54.508Z,33.80
2023-07-24T14:10:22.599Z,34.10
2023-07-24T14:12:50.513Z,34.40
2023-07-24T14:15:18.444Z,34.30
2023-07-24T14:17:46.489Z,33.40
2023-07-24T14:20:14.374Z,32.60
2023-07-24T14:22:42.298Z,32.20
2023-07-24T14:25:12.902Z,31.80
2023-07-24T14:27:40.822Z,31.50
2023-07-24T14:30:10.941Z,31.60
2023-07-24T14:32:38.890Z,31.60
2023-07-24T14:35:07.286Z,31.70
2023-07-24T14:37:35.235Z,31.70
2023-07-24T14:40:03.704Z,31.80
2023-07-24T14:42:33.050Z,32.00
2023-07-24T14:45:03.502Z,31.80
2023-07-24T14:47:31.665Z,32.00
2023-07-24T14:50:00.033Z,31.50
2023-07-24T14:52:27.919Z,31.10
2023-07-24T14:54:55.849Z,31.40
2023-07-24T14:57:26.120Z,32.30
2023-07-24T14:59:55.818Z,33.40
2023-07-24T15:02:23.715Z,34.20
2023-07-24T15:04:51.694Z,34.80
2023-07-24T15:07:19.664Z,34.90
2023-07-24T15:09:47.581Z,34.50
2023-07-24T15:12:15.503Z,34.00
2023-07-24T15:14:43.560Z,33.50
2023-07-24T15:17:15.765Z,33.60
2023-07-24T15:19:43.805Z,33.20
2023-07-24T15:22:11.708Z,32.70
2023-07-24T15:24:39.723Z,32.30
2023-07-24T15:27:09.788Z,31.80
2023-07-24T15:29:37.824Z,31.40
2023-07-24T15:32:06.891Z,31.30
2023-07-24T15:34:39.178Z,31.00
2023-07-24T15:37:07.882Z,30.70
2023-07-24T15:39:35.761Z,31.00
2023-07-24T15:42:03.704Z,31.50
2023-07-24T15:44:31.598Z,31.40
2023-07-24T15:46:59.536Z,30.90
2023-07-24T15:49:27.449Z,30.40
2023-07-24T15:51:57.157Z,30.10
2023-07-24T15:54:25.045Z,29.80
2023-07-24T15:56:52.972Z,29.50
2023-07-24T15:59:20.877Z,29.30
2023-07-24T16:01:48.791Z,29.10
2023-07-24T16:04:16.687Z,28.90
2023-07-24T16:06:44.780Z,28.80
2023-07-24T16:09:14.131Z,28.70
2023-07-24T16:11:42.056Z,28.50
2023-07-24T16:14:10.164Z,28.30
2023-07-24T16:16:38.092Z,28.20
2023-07-24T16:19:12.200Z,28.10
2023-07-24T16:21:40.110Z,27.90
2023-07-24T16:24:08.068Z,27.80
2023-07-24T16:26:37.615Z,27.80
2023-07-24T16:29:06.062Z,28.00
2023-07-24T16:31:36.118Z,28.30
2023-07-24T16:34:04.924Z,28.80
2023-07-24T16:36:34.078Z,29.00
2023-07-24T16:39:02.160Z,29.00
2023-07-24T16:41:30.053Z,28.80
2023-07-24T16:44:02.115Z,28.70
2023-07-24T16:46:30.580Z,28.50
2023-07-24T16:48:58.583Z,28.30
2023-07-24T16:51:26.543Z,28.10
2023-07-24T16:53:54.478Z,27.90
2023-07-24T16:56:22.376Z,27.80
2023-07-24T16:58:50.753Z,27.70
2023-07-24T17:01:20.152Z,27.60
2023-07-24T17:03:48.123Z,27.60
2023-07-24T17:06:16.086Z,27.40
2023-07-24T17:08:43.971Z,27.30
2023-07-24T17:11:11.869Z,27.20
2023-07-24T17:13:42.030Z,27.10
2023-07-24T17:16:10.462Z,27.10
2023-07-24T17:18:39.741Z,27.20
2023-07-24T17:21:07.703Z,27.40
2023-07-24T17:23:35.634Z,27.70
2023-07-24T17:26:03.765Z,27.80
2023-07-24T17:28:31.661Z,27.80
2023-07-24T17:30:59.681Z,27.80
2023-07-24T17:33:27.641Z,27.70
2023-07-24T17:35:57.054Z,27.50
2023-07-24T17:38:25.006Z,27.20
2023-07-24T17:40:52.892Z,27.10
2023-07-24T17:43:20.961Z,27.10
2023-07-24T17:45:48.888Z,27.10
2023-07-24T17:48:16.812Z,27.10
2023-07-24T17:50:45.644Z,27.00
2023-07-24T17:53:14.953Z,26.90
2023-07-24T17:55:42.853Z,26.80
2023-07-24T17:58:10.758Z,26.80
2023-07-24T18:00:41.591Z,26.80
2023-07-24T18:03:09.613Z,26.70
2023-07-24T18:05:37.617Z,26.70
2023-07-24T18:08:05.783Z,26.60
2023-07-24T18:10:35.083Z,26.60
2023-07-24T18:13:03.798Z,26.40
2023-07-24T18:15:31.733Z,26.60
2023-07-24T18:17:59.698Z,26.00
2023-07-24T18:20:27.659Z,25.90
2023-07-24T18:22:55.566Z,25.80
2023-07-24T18:25:23.582Z,25.70
2023-07-24T18:27:55.597Z,25.60
2023-07-24T18:30:29.517Z,25.50
2023-07-24T18:32:57.561Z,25.40
2023-07-24T18:35:25.738Z,25.40
2023-07-24T18:37:53.967Z,25.40
2023-07-24T18:40:21.858Z,25.40
2023-07-24T18:42:50.388Z,25.50
2023-07-24T18:45:19.757Z,25.50
2023-07-24T18:47:47.719Z,25.50
2023-07-24T18:50:15.700Z,25.50
2023-07-24T18:52:43.632Z,25.50
2023-07-24T18:55:11.578Z,25.40
2023-07-24T18:57:39.661Z,25.40
2023-07-24T19:00:08.167Z,25.40
2023-07-24T19:02:37.467Z,25.40
2023-07-24T19:05:05.685Z,25.30
2023-07-24T19:07:33.706Z,25.30
2023-07-24T19:10:01.602Z,25.30
2023-07-24T19:12:29.716Z,25.20
2023-07-24T19:14:57.654Z,25.20
2023-07-24T19:17:25.761Z,25.20
2023-07-24T19:19:55.020Z,25.20
2023-07-24T19:22:22.927Z,25.20
2023-07-24T19:24:50.956Z,25.20
2023-07-24T19:27:18.920Z,25.10
2023-07-24T19:29:47.002Z,25.10
2023-07-24T19:32:14.932Z,25.10
2023-07-24T19:34:44.353Z,25.10
2023-07-24T19:37:13.716Z,25.10
2023-07-24T19:39:41.716Z,25.10
2023-07-24T19:42:12.015Z,25.00
2023-07-24T19:44:40.221Z,25.00
2023-07-24T19:47:08.177Z,25.00
2023-07-24T19:49:40.211Z,24.90
2023-07-24T19:52:08.464Z,24.90
2023-07-24T19:54:37.757Z,24.90
2023-07-24T19:57:06.052Z,24.80
2023-07-24T19:59:33.952Z,24.80
2023-07-24T20:02:02.422Z,24.80
2023-07-24T20:04:30.352Z,24.80
2023-07-24T20:06:58.209Z,24.80
2023-07-24T20:09:26.365Z,24.80
2023-07-24T20:11:55.729Z,24.70
2023-07-24T20:14:23.895Z,24.70
2023-07-24T20:16:51.888Z,24.70
2023-07-24T20:19:20.031Z,24.70
2023-07-24T20:21:47.950Z,24.70
2023-07-24T20:24:15.943Z,24.70
2023-07-24T20:26:43.872Z,24.70
2023-07-24T20:29:13.129Z,24.60
2023-07-24T20:31:41.074Z,24.60
2023-07-24T20:34:09.023Z,24.60
2023-07-24T20:36:37.803Z,24.60
2023-07-24T20:39:05.684Z,24.60
2023-07-24T20:41:34.755Z,24.60
2023-07-24T20:44:03.890Z,24.50
2023-07-24T20:46:35.255Z,24.50
2023-07-24T20:49:03.201Z,24.50
2023-07-24T20:51:31.302Z,24.50
2023-07-24T20:53:59.909Z,24.50
2023-07-24T20:56:28.000Z,24.50
2023-07-24T20:58:55.887Z,24.40
2023-07-24T21:01:24.412Z,24.40
2023-07-24T21:03:54.234Z,24.40
2023-07-24T21:06:22.149Z,24.40
2023-07-24T21:08:50.051Z,24.40
2023-07-24T21:11:18.113Z,24.40
2023-07-24T21:13:46.050Z,24.40
2023-07-24T21:16:13.950Z,24.40
2023-07-24T21:18:41.858Z,24.40
2023-07-24T21:21:11.720Z,24.30
2023-07-24T21:23:39.639Z,24.40
2023-07-24T21:26:07.535Z,24.30
2023-07-24T21:28:35.453Z,24.30
2023-07-24T21:31:08.515Z,24.30
2023-07-24T21:33:36.515Z,24.30
2023-07-24T21:36:04.717Z,24.20
2023-07-24T21:38:34.167Z,24.30
2023-07-24T21:41:02.080Z,24.30
2023-07-24T21:43:29.993Z,24.20
2023-07-24T21:45:57.925Z,24.20
2023-07-24T21:48:25.841Z,24.20
2023-07-24T21:50:54.140Z,24.20
2023-07-24T21:53:22.346Z,24.20
2023-07-24T21:55:51.720Z,24.20
2023-07-24T21:58:19.771Z,24.10
2023-07-24T22:00:47.753Z,24.20
2023-07-24T22:03:15.682Z,24.10
2023-07-24T22:05:43.860Z,24.10
2023-07-24T22:08:11.784Z,24.10
2023-07-24T22:10:39.729Z,24.10
2023-07-24T22:13:08.997Z,24.10
2023-07-24T22:15:36.971Z,24.00
2023-07-24T22:18:05.008Z,24.00
2023-07-24T22:20:40.557Z,24.00
2023-07-24T22:23:09.369Z,24.00
2023-07-24T22:25:37.301Z,24.00
2023-07-24T22:28:05.424Z,23.90
2023-07-24T22:30:34.726Z,24.00
2023-07-24T22:33:02.996Z,23.90
2023-07-24T22:35:30.995Z,23.90
2023-07-24T22:37:58.942Z,23.90
2023-07-24T22:40:29.200Z,23.90
2023-07-24T22:42:57.153Z,23.90
2023-07-24T22:45:25.032Z,23.80
2023-07-24T22:47:54.375Z,23.90
2023-07-24T22:50:22.657Z,23.80
2023-07-24T22:52:50.583Z,23.80
2023-07-24T22:55:19.763Z,23.80
2023-07-24T22:57:47.717Z,23.80
2023-07-24T23:00:15.689Z,23.80
2023-07-24T23:02:43.697Z,23.80
2023-07-24T23:05:14.221Z,23.80
2023-07-24T23:07:42.167Z,23.80
2023-07-24T23:10:10.408Z,23.70
2023-07-24T23:12:38.338Z,23.70
2023-07-24T23:15:06.479Z,23.70
2023-07-24T23:17:34.406Z,23.70
2023-07-24T23:20:02.359Z,23.70
2023-07-24T23:22:31.635Z,23.70
2023-07-24T23:24:59.586Z,23.70
2023-07-24T23:27:27.562Z,23.60
2023-07-24T23:29:55.472Z,23.60
2023-07-24T23:32:23.413Z,23.60
2023-07-24T23:34:51.347Z,23.60
2023-07-24T23:37:19.257Z,23.60
2023-07-24T23:39:48.561Z,23.60
2023-07-24T23:42:16.441Z,23.60
2023-07-24T23:44:44.364Z,23.50
2023-07-24T23:47:12.717Z,23.50
2023-07-24T23:49:40.658Z,23.50
2023-07-24T23:52:09.383Z,23.50
2023-07-24T23:54:37.325Z,23.50
2023-07-24T23:57:06.968Z,23.50
2023-07-24T23:59:34.926Z,23.50
